Аэропорт: Павлодар. Павлодар

ICAO: UASP

METAR:
2022-01-28 08:00:00
UASP 280800Z 14003MPS CAVOK M18/M20 Q1028 NOSIG RMK QFE760/1013
METAR:
2022-01-28 05:00:00
TAF UASP 280500Z 2806/2815 16003MPS 5000 FU BKN007 TEMPO 2806/2808 3100 BR BKN002